createdAt,value
2023-02-09T00:01:30.400Z,102897.25
2023-02-09T00:03:59.578Z,102908.06
2023-02-09T00:06:27.284Z,102903.31
2023-02-09T00:08:54.335Z,102905.03
2023-02-09T00:11:22.539Z,102912.44
2023-02-09T00:13:49.452Z,102899.13
2023-02-09T00:16:16.365Z,102919.38
2023-02-09T00:18:43.235Z,102914.47
2023-02-09T00:21:11.600Z,102935.38
2023-02-09T00:23:40.866Z,102926.63
2023-02-09T00:26:12.281Z,102928.81
2023-02-09T00:28:42.662Z,102926.63
2023-02-09T00:31:11.977Z,102944.31
2023-02-09T00:33:40.949Z,102935.38
2023-02-09T00:36:12.531Z,102937.41
2023-02-09T00:38:40.566Z,102935.34
2023-02-09T00:41:09.187Z,102925.53
2023-02-09T00:43:36.038Z,102926.88
2023-02-09T00:46:03.015Z,102930.41
2023-02-09T00:48:30.549Z,102925.31
2023-02-09T00:50:57.732Z,102913.22
2023-02-09T00:53:25.074Z,102931.69
2023-02-09T00:55:52.282Z,102923.09
2023-02-09T00:58:20.011Z,102917.91
2023-02-09T01:00:48.658Z,102921.22
2023-02-09T01:03:15.648Z,102918.19
2023-02-09T01:05:42.970Z,102927.41
2023-02-09T01:08:11.509Z,102927.38
2023-02-09T01:10:39.794Z,102929.28
2023-02-09T01:13:06.990Z,102922.19
2023-02-09T01:15:34.599Z,102916.63
2023-02-09T01:18:01.754Z,102920.88
2023-02-09T01:20:28.603Z,102921.66
2023-02-09T01:22:55.641Z,102929.75
2023-02-09T01:25:22.447Z,102919.59
2023-02-09T01:27:49.886Z,102940.78
2023-02-09T01:30:17.002Z,102936.28
2023-02-09T01:32:44.049Z,102924.06
2023-02-09T01:35:11.087Z,102939.22
2023-02-09T01:37:38.223Z,102941.91
2023-02-09T01:40:07.278Z,102953.22
2023-02-09T01:42:35.216Z,102944.22
2023-02-09T01:45:02.064Z,102955.63
2023-02-09T01:47:29.700Z,102952.84
2023-02-09T01:49:57.349Z,102955.44
2023-02-09T01:52:28.050Z,102957.13
2023-02-09T01:55:00.435Z,102965.88
2023-02-09T01:57:34.392Z,102966.56
2023-02-09T02:00:07.798Z,102970.63
2023-02-09T02:02:43.241Z,102960.84
2023-02-09T02:05:11.202Z,102965.91
2023-02-09T02:08:01.441Z,102968.13
2023-02-09T02:10:29.602Z,102963.28
2023-02-09T02:12:57.042Z,102959.94
2023-02-09T02:15:30.087Z,102954.94
2023-02-09T02:18:11.384Z,102973.44
2023-02-09T02:20:57.256Z,102971.47
2023-02-09T02:23:40.434Z,102978.94
2023-02-09T02:26:38.420Z,102970.69
2023-02-09T02:29:32.866Z,102968.13
2023-02-09T02:32:32.066Z,102969.88
2023-02-09T02:35:15.451Z,102969.28
2023-02-09T02:37:48.589Z,102973.34
2023-02-09T02:40:59.728Z,102983.09
2023-02-09T02:43:35.469Z,102985.56
2023-02-09T02:46:07.214Z,102980.78
2023-02-09T02:48:56.855Z,102976.72
2023-02-09T02:51:45.552Z,102975.63
2023-02-09T02:54:19.689Z,102984.81
2023-02-09T02:57:03.371Z,102973.75
2023-02-09T02:59:33.540Z,102983.41
2023-02-09T03:02:06.381Z,102974.41
2023-02-09T03:04:36.593Z,102978.13
2023-02-09T03:07:07.818Z,102985.03
2023-02-09T03:09:34.951Z,102983.09
2023-02-09T03:12:25.617Z,102982.28
2023-02-09T03:28:07.411Z,102969.31
2023-02-09T03:30:35.729Z,102971.09
2023-02-09T03:33:06.647Z,102967.56
2023-02-09T03:35:40.089Z,102964.59
2023-02-09T03:38:07.441Z,102964.00
2023-02-09T03:40:35.388Z,102965.28
2023-02-09T03:43:02.253Z,102961.72
2023-02-09T03:45:29.136Z,102965.44
2023-02-09T03:47:56.100Z,102954.84
2023-02-09T03:50:23.107Z,102960.63
2023-02-09T03:52:50.827Z,102949.38
2023-02-09T03:55:17.709Z,102957.41
2023-02-09T03:57:45.313Z,102943.56
2023-02-09T04:00:12.960Z,102952.47
2023-02-09T04:02:41.642Z,102948.38
2023-02-09T04:05:08.952Z,102958.53
2023-02-09T04:07:35.950Z,102963.13
2023-02-09T04:10:03.338Z,102957.09
2023-02-09T04:12:30.225Z,102964.97
2023-02-09T04:14:57.217Z,102972.69
2023-02-09T04:17:24.052Z,102959.34
2023-02-09T04:19:51.060Z,102958.56
2023-02-09T04:22:17.923Z,102953.44
2023-02-09T04:24:44.809Z,102959.25
2023-02-09T04:27:11.860Z,102959.22
2023-02-09T04:29:38.793Z,102961.81
2023-02-09T04:32:05.741Z,102939.56
2023-02-09T04:34:32.643Z,102951.84
2023-02-09T04:36:59.537Z,102948.31
2023-02-09T04:39:26.509Z,102965.13
2023-02-09T04:41:53.370Z,102965.19
2023-02-09T04:44:20.254Z,102964.91
2023-02-09T04:46:47.110Z,102957.63
2023-02-09T04:49:14.092Z,102967.38
2023-02-09T04:51:40.894Z,102973.97
2023-02-09T04:54:07.668Z,102972.88
2023-02-09T04:56:34.575Z,102967.69
2023-02-09T04:59:20.156Z,102974.34
2023-02-09T05:01:46.997Z,102971.19
2023-02-09T05:04:13.893Z,102962.47
2023-02-09T05:06:40.747Z,102979.19
2023-02-09T05:09:07.582Z,102972.50
2023-02-09T05:11:34.404Z,102971.28
2023-02-09T05:14:01.200Z,102980.50
2023-02-09T05:16:28.207Z,102986.28
2023-02-09T05:18:55.561Z,102977.19
2023-02-09T05:21:22.377Z,102972.97
2023-02-09T05:23:49.235Z,102973.06
2023-02-09T05:26:16.108Z,102976.91
2023-02-09T05:28:42.983Z,102984.66
2023-02-09T05:31:09.959Z,102976.66
2023-02-09T05:33:36.832Z,102970.91
2023-02-09T05:36:09.286Z,102968.56
2023-02-09T05:38:36.340Z,102973.44
2023-02-09T05:41:11.015Z,102985.25
2023-02-09T05:43:38.032Z,102978.81
2023-02-09T05:46:08.031Z,102968.63
2023-02-09T05:48:35.378Z,102978.22
2023-02-09T05:51:02.229Z,102971.81
2023-02-09T05:53:29.088Z,102970.19
2023-02-09T05:55:55.940Z,102974.41
2023-02-09T05:58:22.811Z,102971.31
2023-02-09T06:00:49.675Z,102976.09
2023-02-09T06:03:16.551Z,102967.88
2023-02-09T06:05:45.941Z,102969.06
2023-02-09T06:08:12.831Z,102956.06
2023-02-09T06:10:39.750Z,102951.94
2023-02-09T06:13:06.594Z,102957.22
2023-02-09T06:15:33.614Z,102952.09
2023-02-09T06:18:00.430Z,102951.47
2023-02-09T06:20:27.462Z,102961.88
2023-02-09T06:22:54.287Z,102948.94
2023-02-09T06:25:21.146Z,102951.06
2023-02-09T06:27:48.051Z,102939.03
2023-02-09T06:30:14.885Z,102946.53
2023-02-09T06:32:41.810Z,102944.03
2023-02-09T06:35:08.664Z,102950.16
2023-02-09T06:37:35.830Z,102943.88
2023-02-09T06:40:03.038Z,102946.50
2023-02-09T06:42:43.859Z,102942.06
2023-02-09T06:45:15.673Z,102941.06
2023-02-09T06:47:44.239Z,102938.34
2023-02-09T06:50:13.017Z,102941.50
2023-02-09T06:52:39.946Z,102942.97
2023-02-09T06:55:07.760Z,102940.41
2023-02-09T06:57:35.200Z,102944.00
2023-02-09T07:00:04.356Z,102937.56
2023-02-09T07:02:31.294Z,102941.06
2023-02-09T07:04:58.642Z,102936.69
2023-02-09T07:07:25.844Z,102940.94
2023-02-09T07:09:53.117Z,102947.69
2023-02-09T07:12:20.019Z,102939.25
2023-02-09T07:14:46.973Z,102948.94
2023-02-09T07:17:13.810Z,102960.50
2023-02-09T07:19:40.746Z,102947.50
2023-02-09T07:22:07.575Z,102956.06
2023-02-09T07:24:34.468Z,102975.28
2023-02-09T07:27:01.279Z,102972.31
2023-02-09T07:29:28.209Z,102964.81
2023-02-09T07:31:55.108Z,102970.22
2023-02-09T07:34:22.051Z,102972.63
2023-02-09T07:36:48.958Z,102978.88
2023-02-09T07:39:16.125Z,102975.19
2023-02-09T07:41:43.467Z,102972.44
2023-02-09T07:44:10.566Z,102985.06
2023-02-09T07:46:37.965Z,102982.25
2023-02-09T07:49:04.981Z,102991.41
2023-02-09T07:51:33.432Z,102986.44
2023-02-09T07:54:01.585Z,102969.66
2023-02-09T07:56:29.138Z,102981.44
2023-02-09T07:58:57.132Z,102981.06
2023-02-09T08:01:25.091Z,102983.50
2023-02-09T08:03:52.328Z,102982.16
2023-02-09T08:06:42.762Z,102986.19
2023-02-09T08:09:11.680Z,102981.50
2023-02-09T08:11:45.402Z,102988.78
2023-02-09T08:14:20.930Z,102987.13
2023-02-09T08:16:50.401Z,102994.81
2023-02-09T08:19:22.115Z,102996.56
2023-02-09T08:21:49.996Z,103000.34
2023-02-09T08:24:20.546Z,103002.31
2023-02-09T08:26:47.430Z,103012.22
2023-02-09T08:29:14.394Z,103013.22
2023-02-09T08:31:41.396Z,103010.84
2023-02-09T08:34:08.376Z,103022.41
2023-02-09T08:36:37.753Z,103021.22
2023-02-09T08:39:05.758Z,103015.75
2023-02-09T08:41:34.514Z,103017.50
2023-02-09T08:44:01.483Z,103019.50
2023-02-09T08:46:28.862Z,103024.44
2023-02-09T08:48:55.857Z,103022.66
2023-02-09T08:51:22.740Z,103032.84
2023-02-09T08:53:54.477Z,103037.66
2023-02-09T08:56:22.695Z,103018.00
2023-02-09T08:58:50.097Z,103023.50
2023-02-09T09:01:17.141Z,103022.81
2023-02-09T09:03:44.054Z,103028.66
2023-02-09T09:06:12.155Z,103020.00
2023-02-09T09:08:40.254Z,103017.41
2023-02-09T09:11:10.245Z,103009.97
2023-02-09T09:13:37.244Z,103003.72
2023-02-09T09:16:05.251Z,103011.34
2023-02-09T09:18:32.805Z,102998.81
2023-02-09T09:20:59.763Z,103004.19
2023-02-09T09:23:26.779Z,103008.75
2023-02-09T09:25:53.812Z,102993.06
2023-02-09T09:28:20.834Z,102999.41
2023-02-09T09:30:47.700Z,102997.47
2023-02-09T09:33:14.667Z,102990.41
2023-02-09T09:35:42.054Z,102987.38
2023-02-09T09:38:08.977Z,102981.44
2023-02-09T09:40:40.620Z,102979.91
2023-02-09T09:43:39.841Z,102972.06
2023-02-09T09:46:12.119Z,102972.25
2023-02-09T09:48:56.244Z,102971.28
2023-02-09T09:51:40.719Z,102978.91
2023-02-09T09:54:16.510Z,102970.56
2023-02-09T09:56:43.456Z,102968.06
2023-02-09T09:59:23.428Z,102976.28
2023-02-09T10:01:52.809Z,102969.97
2023-02-09T10:04:21.112Z,102964.84
2023-02-09T10:07:02.419Z,102957.22
2023-02-09T10:09:38.967Z,102958.53
2023-02-09T10:12:22.822Z,102948.91
2023-02-09T10:14:49.732Z,102953.38
2023-02-09T10:17:16.572Z,102943.84
2023-02-09T10:19:43.357Z,102938.59
2023-02-09T10:22:13.805Z,102949.81
2023-02-09T10:24:42.012Z,102943.47
2023-02-09T10:27:23.633Z,102942.13
2023-02-09T10:29:50.489Z,102939.69
2023-02-09T10:32:20.959Z,102932.38
2023-02-09T10:34:50.773Z,102945.66
2023-02-09T10:37:22.861Z,102930.97
2023-02-09T10:40:17.754Z,102936.56
2023-02-09T10:43:06.219Z,102919.00
2023-02-09T10:45:42.422Z,102945.78
2023-02-09T10:48:12.029Z,102950.00
2023-02-09T10:51:09.379Z,102957.06
2023-02-09T10:53:39.747Z,102951.06
2023-02-09T10:56:19.145Z,102956.84
2023-02-09T10:59:14.090Z,102954.69
2023-02-09T11:01:43.292Z,102960.38
2023-02-09T11:04:16.272Z,102956.97
2023-02-09T11:06:57.748Z,102943.06
2023-02-09T11:09:28.996Z,102954.53
2023-02-09T11:11:56.492Z,102946.56
2023-02-09T11:14:23.730Z,102951.22
2023-02-09T11:17:25.733Z,102945.63
2023-02-09T11:20:14.108Z,102938.59
2023-02-09T11:23:02.499Z,102929.84
2023-02-09T11:25:38.104Z,102937.38
2023-02-09T11:28:29.636Z,102933.78
2023-02-09T11:31:36.668Z,102947.94
2023-02-09T11:34:35.902Z,102933.56
2023-02-09T11:37:30.192Z,102936.84
2023-02-09T11:40:21.371Z,102942.84
2023-02-09T11:43:06.753Z,102935.69
2023-02-09T11:45:33.850Z,102939.53
2023-02-09T11:48:09.523Z,102934.53
2023-02-09T11:50:55.028Z,102940.28
2023-02-09T11:54:04.745Z,102933.66
2023-02-09T11:56:37.199Z,102938.00
2023-02-09T11:59:19.038Z,102926.50
2023-02-09T12:02:20.829Z,102922.91
2023-02-09T12:04:51.659Z,102922.81
2023-02-09T12:07:33.053Z,102924.53
2023-02-09T12:10:02.891Z,102919.34
2023-02-09T12:12:40.421Z,102921.53
2023-02-09T12:15:34.237Z,102917.25
2023-02-09T12:18:05.894Z,102916.16
2023-02-09T12:20:38.821Z,102917.22
2023-02-09T12:23:23.821Z,102914.13
2023-02-09T12:26:12.380Z,102914.69
2023-02-09T12:28:44.106Z,102917.66
2023-02-09T12:31:18.134Z,102914.72
2023-02-09T12:33:45.063Z,102915.16
2023-02-09T12:36:16.059Z,102910.25
2023-02-09T12:38:55.456Z,102917.25
2023-02-09T12:41:28.307Z,102910.59
2023-02-09T12:44:10.389Z,102919.50
2023-02-09T12:46:56.867Z,102921.13
2023-02-09T12:49:29.683Z,102924.75
2023-02-09T12:51:59.658Z,102913.75
2023-02-09T12:54:49.828Z,102926.06
2023-02-09T12:57:16.723Z,102920.06
2023-02-09T12:59:55.467Z,102920.84
2023-02-09T13:02:50.784Z,102923.69
2023-02-09T13:05:22.278Z,102917.69
2023-02-09T13:08:04.318Z,102914.50
2023-02-09T13:10:57.772Z,102911.97
2023-02-09T13:13:28.791Z,102903.25
2023-02-09T13:16:03.386Z,102909.38
2023-02-09T13:18:45.281Z,102919.78
2023-02-09T13:21:26.098Z,102920.63
2023-02-09T13:24:09.461Z,102917.16
2023-02-09T13:26:47.100Z,102923.97
2023-02-09T13:29:33.542Z,102935.00
2023-02-09T13:32:09.603Z,102927.88
2023-02-09T13:34:45.493Z,102933.56
2023-02-09T13:37:43.451Z,102927.69
2023-02-09T13:40:19.397Z,102920.78
2023-02-09T13:43:16.429Z,102930.47
2023-02-09T13:45:54.252Z,102927.16
2023-02-09T13:48:27.189Z,102942.81
2023-02-09T13:50:56.271Z,102942.75
2023-02-09T13:53:25.147Z,102934.41
2023-02-09T13:55:54.260Z,102932.34
2023-02-09T13:58:26.163Z,102932.50
2023-02-09T14:00:57.112Z,102933.94
2023-02-09T14:03:31.331Z,102936.50
2023-02-09T14:06:25.702Z,102929.44
2023-02-09T14:08:54.084Z,102934.47
2023-02-09T14:11:41.393Z,102923.66
2023-02-09T14:14:19.717Z,102927.28
2023-02-09T14:16:53.357Z,102938.75
2023-02-09T14:19:31.551Z,102933.06
2023-02-09T14:21:58.518Z,102933.06
2023-02-09T14:24:27.042Z,102937.63
2023-02-09T14:27:03.922Z,102935.66
2023-02-09T14:29:34.192Z,102935.03
2023-02-09T14:32:27.419Z,102940.19
2023-02-09T14:34:59.181Z,102937.66
2023-02-09T14:37:29.737Z,102936.44
2023-02-09T14:40:04.549Z,102938.41
2023-02-09T14:42:39.427Z,102943.16
2023-02-09T14:45:15.331Z,102948.53
2023-02-09T14:47:44.515Z,102947.50
2023-02-09T14:50:13.582Z,102936.97
2023-02-09T14:52:46.883Z,102938.53
2023-02-09T14:55:26.336Z,102946.47
2023-02-09T14:57:53.868Z,102941.75
2023-02-09T15:00:22.256Z,102945.53
2023-02-09T15:02:50.757Z,102942.38
2023-02-09T15:05:19.438Z,102945.50
2023-02-09T15:07:54.132Z,102954.78
2023-02-09T15:10:30.887Z,102950.22
2023-02-09T15:12:58.552Z,102948.25
2023-02-09T15:29:59.724Z,102946.28
2023-02-09T15:32:28.444Z,102941.88
2023-02-09T15:34:55.481Z,102944.53
2023-02-09T15:37:24.597Z,102946.88
2023-02-09T15:39:55.903Z,102943.88
2023-02-09T15:42:41.687Z,102948.16
2023-02-09T15:45:40.490Z,102943.88
2023-02-09T15:48:08.412Z,102945.16
2023-02-09T15:50:39.316Z,102946.75
2023-02-09T15:53:11.706Z,102943.03
2023-02-09T15:55:39.649Z,102944.59
2023-02-09T15:58:13.940Z,102940.66
2023-02-09T16:00:41.065Z,102936.94
2023-02-09T16:03:15.312Z,102936.78
2023-02-09T16:05:43.085Z,102932.31
2023-02-09T16:08:23.677Z,102935.16
2023-02-09T16:10:50.964Z,102940.06
2023-02-09T16:13:19.445Z,102945.47
2023-02-09T16:15:47.379Z,102936.88
2023-02-09T16:18:14.630Z,102936.59
2023-02-09T16:20:47.102Z,102942.78
2023-02-09T16:23:34.272Z,102943.97
2023-02-09T16:26:01.880Z,102944.50
2023-02-09T16:28:28.973Z,102931.53
2023-02-09T16:30:58.336Z,102940.88
2023-02-09T16:33:28.187Z,102938.56
2023-02-09T16:36:17.253Z,102937.63
2023-02-09T16:38:44.911Z,102929.34
2023-02-09T16:41:36.330Z,102930.81
2023-02-09T16:44:33.657Z,102923.41
2023-02-09T16:47:01.559Z,102927.97
2023-02-09T16:49:40.494Z,102932.84
2023-02-09T16:52:27.466Z,102930.97
2023-02-09T16:54:59.856Z,102919.53
2023-02-09T16:57:28.373Z,102927.22
2023-02-09T16:59:55.417Z,102927.66
2023-02-09T17:02:31.203Z,102925.81
2023-02-09T17:04:59.230Z,102925.19
2023-02-09T17:07:31.032Z,102923.81
2023-02-09T17:09:58.082Z,102923.56
2023-02-09T17:12:24.892Z,102920.25
2023-02-09T17:14:51.797Z,102918.00
2023-02-09T17:17:21.543Z,102930.06
2023-02-09T17:19:50.439Z,102921.03
2023-02-09T17:22:17.831Z,102936.28
2023-02-09T17:24:47.211Z,102940.31
2023-02-09T17:27:14.307Z,102936.00
2023-02-09T17:29:41.305Z,102931.31
2023-02-09T17:32:13.619Z,102937.34
2023-02-09T17:34:40.871Z,102933.91
2023-02-09T17:37:13.712Z,102928.63
2023-02-09T17:39:41.084Z,102926.59
2023-02-09T17:42:22.037Z,102932.47
2023-02-09T17:44:50.844Z,102925.25
2023-02-09T17:47:19.988Z,102927.06
2023-02-09T17:49:47.195Z,102919.72
2023-02-09T17:52:19.058Z,102921.03
2023-02-09T17:54:46.742Z,102928.38
2023-02-09T17:57:15.657Z,102918.94
2023-02-09T17:59:43.402Z,102914.19
2023-02-09T18:02:18.245Z,102917.69
2023-02-09T18:04:45.791Z,102920.28
2023-02-09T18:07:14.551Z,102922.31
2023-02-09T18:09:41.463Z,102932.94
2023-02-09T18:12:16.935Z,102928.72
2023-02-09T18:14:43.818Z,102926.41
2023-02-09T18:17:10.779Z,102928.50
2023-02-09T18:19:37.812Z,102934.28
2023-02-09T18:22:04.809Z,102933.63
2023-02-09T18:24:34.663Z,102941.34
2023-02-09T18:27:02.240Z,102939.72
2023-02-09T18:29:30.189Z,102946.91
2023-02-09T18:32:00.111Z,102944.78
2023-02-09T18:34:27.916Z,102947.44
2023-02-09T18:36:54.956Z,102944.97
2023-02-09T18:39:21.918Z,102938.53
2023-02-09T18:41:54.205Z,102942.13
2023-02-09T18:44:29.279Z,102935.84
2023-02-09T18:46:57.370Z,102936.50
2023-02-09T18:49:24.291Z,102941.53
2023-02-09T18:51:52.291Z,102939.22
2023-02-09T18:54:19.337Z,102935.75
2023-02-09T18:56:47.015Z,102937.72
2023-02-09T18:59:14.335Z,102946.84
2023-02-09T19:01:41.470Z,102948.94
2023-02-09T19:04:08.571Z,102937.41
2023-02-09T19:06:35.721Z,102942.19
2023-02-09T19:09:02.882Z,102936.97
2023-02-09T19:11:29.848Z,102936.06
2023-02-09T19:14:15.504Z,102932.28
2023-02-09T19:16:43.033Z,102928.91
2023-02-09T19:19:10.147Z,102932.31
2023-02-09T19:21:37.128Z,102927.16
2023-02-09T19:24:05.170Z,102936.38
2023-02-09T19:26:32.038Z,102935.25
2023-02-09T19:28:58.878Z,102929.88
2023-02-09T19:31:25.920Z,102936.25
2023-02-09T19:33:58.643Z,102927.72
2023-02-09T19:36:27.942Z,102936.34
2023-02-09T19:38:56.520Z,102939.53
2023-02-09T19:41:25.626Z,102943.13
2023-02-09T19:43:56.932Z,102943.09
2023-02-09T19:46:24.286Z,102938.56
2023-02-09T19:48:53.875Z,102940.94
2023-02-09T19:51:21.141Z,102942.78
2023-02-09T19:53:48.126Z,102942.91
2023-02-09T19:56:16.998Z,102939.41
2023-02-09T19:58:44.601Z,102939.53
2023-02-09T20:01:11.918Z,102942.94
2023-02-09T20:03:39.253Z,102933.66
2023-02-09T20:06:12.594Z,102938.31
2023-02-09T20:08:40.135Z,102930.75
2023-02-09T20:11:08.910Z,102936.16
2023-02-09T20:13:35.912Z,102937.19
2023-02-09T20:16:11.550Z,102936.50
2023-02-09T20:18:38.465Z,102930.78
2023-02-09T20:21:09.331Z,102937.03
2023-02-09T20:23:37.464Z,102931.66
2023-02-09T20:26:33.145Z,102927.25
2023-02-09T20:28:59.984Z,102929.66
2023-02-09T20:31:29.466Z,102936.22
2023-02-09T20:33:58.541Z,102938.91
2023-02-09T20:36:25.859Z,102921.41
2023-02-09T20:38:52.849Z,102925.78
2023-02-09T20:41:19.690Z,102931.84
2023-02-09T20:44:05.193Z,102928.31
2023-02-09T20:46:52.338Z,102933.38
2023-02-09T20:49:19.738Z,102939.63
2023-02-09T20:51:47.075Z,102942.47
2023-02-09T20:54:14.443Z,102946.84
2023-02-09T20:56:41.888Z,102947.84
2023-02-09T20:59:09.616Z,102958.31
2023-02-09T21:01:37.780Z,102953.59
2023-02-09T21:04:06.565Z,102958.66
2023-02-09T21:06:34.063Z,102957.13
2023-02-09T21:09:01.009Z,102959.84
2023-02-09T21:11:28.047Z,102949.19
2023-02-09T21:13:55.845Z,102960.16
2023-02-09T21:16:25.398Z,102955.78
2023-02-09T21:18:52.277Z,102956.09
2023-02-09T21:21:19.616Z,102956.06
2023-02-09T21:23:46.872Z,102953.53
2023-02-09T21:26:16.584Z,102952.69
2023-02-09T21:28:48.743Z,102950.09
2023-02-09T21:31:25.564Z,102954.72
2023-02-09T21:33:52.631Z,102957.50
2023-02-09T21:36:19.662Z,102960.22
2023-02-09T21:38:46.711Z,102947.78
2023-02-09T21:41:37.728Z,102951.78
2023-02-09T21:44:05.740Z,102947.78
2023-02-09T21:46:32.658Z,102943.34
2023-02-09T21:48:59.475Z,102960.22
2023-02-09T21:51:26.378Z,102954.03
2023-02-09T21:53:53.176Z,102950.13
2023-02-09T21:56:20.054Z,102954.56
2023-02-09T21:58:47.048Z,102954.81
2023-02-09T22:01:14.026Z,102956.72
2023-02-09T22:03:44.599Z,102962.28
2023-02-09T22:06:11.599Z,102961.41
2023-02-09T22:08:38.492Z,102962.81
2023-02-09T22:11:06.298Z,102952.84
2023-02-09T22:13:33.635Z,102952.88
2023-02-09T22:16:05.009Z,102955.59
2023-02-09T22:18:31.890Z,102961.00
2023-02-09T22:20:58.664Z,102950.72
2023-02-09T22:23:27.099Z,102951.88
2023-02-09T22:26:01.608Z,102944.28
2023-02-09T22:28:28.603Z,102952.03
2023-02-09T22:30:55.600Z,102943.09
2023-02-09T22:33:22.938Z,102933.50
2023-02-09T22:35:49.929Z,102928.47
2023-02-09T22:38:16.816Z,102919.69
2023-02-09T22:40:43.636Z,102926.78
2023-02-09T22:43:10.471Z,102930.97
2023-02-09T22:45:37.328Z,102932.63
2023-02-09T22:48:04.443Z,102930.13
2023-02-09T22:50:31.313Z,102932.63
2023-02-09T22:52:58.185Z,102932.50
2023-02-09T22:55:25.132Z,102941.09
2023-02-09T22:57:52.064Z,102929.28
2023-02-09T23:00:19.020Z,102928.47
2023-02-09T23:02:45.937Z,102926.91
2023-02-09T23:05:12.765Z,102926.41
2023-02-09T23:07:39.670Z,102926.59
2023-02-09T23:10:06.559Z,102916.44
2023-02-09T23:12:33.433Z,102923.69
2023-02-09T23:15:00.293Z,102930.06
2023-02-09T23:17:27.177Z,102929.56
2023-02-09T23:19:53.941Z,102920.16
2023-02-09T23:22:20.782Z,102927.03
2023-02-09T23:24:47.645Z,102925.16
2023-02-09T23:27:14.508Z,102919.75
2023-02-09T23:29:41.426Z,102923.13
2023-02-09T23:32:08.483Z,102916.56
2023-02-09T23:34:35.408Z,102919.22
2023-02-09T23:37:13.264Z,102923.75
2023-02-09T23:39:45.713Z,102909.44
2023-02-09T23:42:12.582Z,102911.63
2023-02-09T23:44:39.475Z,102906.25
2023-02-09T23:47:07.369Z,102908.78
2023-02-09T23:49:34.279Z,102900.34
2023-02-09T23:52:01.116Z,102895.16
2023-02-09T23:54:28.017Z,102890.25
2023-02-09T23:56:55.005Z,102898.88
2023-02-09T23:59:21.885Z,102896.34
